• Join FlightAware (Why Join?)
  • Login
  • US Flag 
03:55PM EDT


 

Airport Tracker/Info


-or-


 

Live Flight TrackerFlight Track Log ✈ JBU1098 ✈ 18-May-2013 ✈ MDSD / SDQ - KFLL

Flight Track Log - Related Links

Times and Time Zones

All times are in EDT time to prevent confusion due to time zone crossing. See the JBU1098 flight status page for this flight to view local times or setup timezone preferences in your user account.

Time Position Orientation Groundspeed Altitude Reporting Facility
EDT Latitude Longitude Course Direction KTS MPH feet Rate Location/Type
06:25AM 19.6842 -70.5218 327° Northwest  Level FlightAware Approximate
06:26AM 19.7566 -70.5721 322° Northwest  Level FlightAware Approximate
06:27AM 19.8251 -70.6283 322° Northwest  Level FlightAware Approximate
06:28AM 19.8936 -70.6846 322° Northwest  Level FlightAware Approximate
06:29AM 19.9621 -70.7410 322° Northwest  Level FlightAware Approximate
06:30AM 20.0305 -70.7973 322° Northwest  Level FlightAware Approximate
06:31AM 20.0989 -70.8538 322° Northwest  Level FlightAware Approximate
06:31AM 20.0239 -70.9258 306° West 437 503 33,000  Level Miami Center
06:32AM 20.1674 -70.9103 322° Northwest  Level FlightAware Approximate
06:32AM 20.1000 -71.0153 312° West 432 497 34,400  Level Miami Center
06:33AM 20.2358 -70.9668 322° Northwest  Level FlightAware Approximate
06:34AM 20.2984 -71.0575 306° West  Level Estimated
06:34AM 20.2464 -71.1947 311° West 408 470 36,000  Level Miami Center
06:35AM 20.3610 -71.1483 306° West  Level Estimated
06:36AM 20.4236 -71.2391 306° West  Level Estimated
06:36AM 20.3469 -71.3257 309° West  Level FlightAware Approximate
06:43AM 20.7360 -71.8148 311° West  Level FlightAware Approximate
06:44AM 20.7917 -71.8845 311° West  Level FlightAware Approximate
06:45AM 20.8474 -71.9543 310° West  Level FlightAware Approximate
06:46AM 20.9031 -72.0242 310° West  Level FlightAware Approximate
06:47AM 20.9588 -72.0941 310° West  Level FlightAware Approximate
06:48AM 21.0144 -72.1641 310° West  Level FlightAware Approximate
06:49AM 21.0700 -72.2341 310° West  Level FlightAware Approximate
06:50AM 21.1255 -72.3042 310° West  Level FlightAware Approximate
06:50AM 21.4061 -72.6389 310° West 407 468 36,000  Level Miami Center
06:51AM 21.1811 -72.3743 310° West  Level FlightAware Approximate
06:51AM 21.4797 -72.7303 311° West 407 468 36,000  Level Miami Center
06:52AM 21.2366 -72.4445 310° West  Level FlightAware Approximate
06:53AM 21.2920 -72.5148 310° West  Level FlightAware Approximate
06:53AM 21.6308 -72.9219 310° West 407 468 36,000  Level Miami Center
06:54AM 21.3475 -72.5851 310° West  Level FlightAware Approximate
06:55AM 21.4029 -72.6554 310° West  Level FlightAware Approximate
06:55AM 21.7225 -73.0614 305° West  Level Estimated
06:56AM 21.8528 -73.2017 305° West 413 475 36,000  Level Miami Center
06:57AM 21.9258 -73.2958 310° West 413 475 36,000  Level Miami Center
06:59AM 22.0681 -73.4847 309° West 413 475 36,000  Level Miami Center
07:01AM 22.1694 -73.6166 310° West  Level FlightAware Approximate
07:05AM 22.4950 -74.0378 309° West 408 470 36,000  Level Miami Center
07:07AM 22.5835 -74.1804 304° West  Level Estimated
07:08AM 22.5517 -74.1174 310° West  Level FlightAware Approximate
07:09AM 22.6062 -74.1892 309° West  Level FlightAware Approximate
07:09AM 22.7814 -74.4100 304° West 408 470 36,000  Level Miami Center
07:10AM 22.6607 -74.2610 309° West  Level FlightAware Approximate
07:11AM 22.9242 -74.5967 310° West 408 470 36,000  Level Miami Center
07:13AM 23.0225 -74.7320 308° West  Level FlightAware Approximate
07:14AM 22.9173 -74.7218 304° West  Level Estimated
07:14AM 23.1414 -74.8797 308° West 408 470 36,000  Level Miami Center
07:15AM 23.2136 -74.9736 310° West 408 470 36,000  Level Miami Center
07:16AM 23.2858 -75.0675 310° West 408 470 36,000  Level Miami Center
07:17AM 23.3578 -75.1617 310° West 408 470 36,000  Level Miami Center
07:18AM 23.4300 -75.2556 310° West 413 475 36,000  Level Miami Center
07:19AM 23.5000 -75.3522 308° West 413 475 36,000  Level Miami Center
07:20AM 23.5719 -75.4442 310° West 413 475 36,000  Level Miami Center
07:21AM 23.6458 -75.5433 309° West 413 475 36,000  Level Miami Center
07:22AM 23.7178 -75.6378 310° West 413 475 36,000  Level Miami Center
07:23AM 23.7875 -75.7347 308° West 413 475 36,000  Level Miami Center
07:24AM 23.8592 -75.8294 310° West 413 475 36,000  Level Miami Center
07:25AM 23.9289 -75.9244 309° West 413 475 36,000  Level Miami Center
07:26AM 23.9983 -76.0194 309° West 413 475 36,000  Level Miami Center
07:27AM 24.0678 -76.1147 309° West 413 475 36,000  Level Miami Center
07:28AM 24.1372 -76.2097 309° West 413 475 36,000  Level Miami Center
07:29AM 24.2067 -76.3053 309° West 413 475 36,000  Level Miami Center
07:30AM 24.2758 -76.4006 309° West 413 475 36,000  Level Miami Center
07:31AM 24.3472 -76.4961 309° West 413 475 36,000  Level Miami Center
07:32AM 24.4186 -76.5894 310° West 413 475 36,000  Level Miami Center
07:33AM 24.4772 -76.6739 307° West 406 467 36,000  Level Miami Center
07:34AM 24.5461 -76.7675 309° West 396 456 36,000  Level Miami Center
07:35AM 24.6172 -76.8633 309° West 396 456 36,000  Level Miami Center
07:36AM 24.6864 -76.9594 308° West 396 456 36,000  Level Miami Center
07:37AM 24.7550 -77.0533 309° West 396 456 36,000  Level Miami Center
07:38AM 24.8239 -77.1497 308° West 396 456 36,000  Level Miami Center
07:39AM 24.8928 -77.2436 309° West 396 456 36,000  Level Miami Center
07:40AM 24.9594 -77.3356 309° West 396 456 36,000  Level Miami Center
07:41AM 25.0425 -77.4483 309° West 406 467 36,000  Level Miami Center
07:42AM 25.1028 -77.5311 309° West 412 474 36,000  Level Miami Center
07:43AM 25.1858 -77.6511 307° West 418 481 36,000  Level Miami Center
07:44AM 25.2542 -77.7458 309° West 412 474 36,000  Level Miami Center
07:45AM 25.3247 -77.8450 308° West 412 474 36,000  Level Miami Center
07:46AM 25.3931 -77.9422 308° West 412 474 36,000 -240 Level Miami Center
07:47AM 25.4633 -78.0419 308° West 412 474 35,600 -1,320 Descending Miami Center
07:48AM 25.5333 -78.1392 309° West 412 474 33,400 -2,280 Descending Miami Center
07:49AM 25.5994 -78.2461 304° West 412 474 31,100 -2,340 Descending Miami Center
07:50AM 25.6253 -78.3731 283° West 411 473 28,800 -2,340 Descending Miami Center
07:51AM 25.6469 -78.4978 281° West 411 473 26,500 -2,340 Descending Miami Center
07:52AM 25.6706 -78.6158 283° West 411 473 24,200 -2,340 Descending Miami Center
07:53AM 25.6942 -78.7336 283° West 405 466 21,900 -2,400 Descending Miami Center
07:54AM 25.7136 -78.8517 280° West 400 460 19,500 -2,220 Descending Miami Center
07:55AM 25.7369 -78.9697 282° West 395 455 17,500 -2,160 Descending Miami Center
07:56AM 25.7542 -79.0806 280° West 389 448 15,200 -2,100 Descending Miami Center
07:57AM 25.7756 -79.1894 282° West 376 433 13,300 -1,800 Descending Miami Center
07:58AM 25.7886 -79.2844 279° West 359 413 11,700 -1,800 Descending Miami Center
07:59AM 25.8075 -79.4000 280° West 352 405 9,800 -1,860 Descending Miami Center
07:59AM 25.8189 -79.4719 280° West 327 376 8,600 -1,500 Descending Miami Center
08:00AM 25.8247 -79.4906 289° West 342 394 8,300 -1,500 Descending Miami Center
08:00AM 25.8339 -79.5578 279° West 303 349 7,300 -1,620 Descending Miami Center
08:01AM 25.8458 -79.5925 291° West 329 379 6,700 -1,200 Descending Miami Center
08:01AM 25.8492 -79.6433 274° West 280 322 6,100 -720 Descending Miami Center
08:02AM 25.8672 -79.6739 303° West 299 344 6,000  Descending Miami Center
08:02AM 25.8811 -79.7111 293° West 268 308 6,100  Climbing Miami Center
08:03AM 25.8994 -79.7461 300° West 281 323 6,000  Descending Miami Center
08:03AM 25.9131 -79.7881 290° West 270 311 6,100  Climbing Miami Center
08:04AM 25.9292 -79.8208 299° West 270 311 6,000  Descending Miami Center
08:04AM 25.9511 -79.8700 296° West 272 313 6,100  Climbing Miami Center
08:05AM 25.9672 -79.8981 303° West 270 311 6,000 -540 Descending Miami Center
08:05AM 25.9831 -79.9492 289° West 272 313 5,500 -900 Descending Miami Center
08:06AM 25.9908 -79.9750 289° West 270 311 5,100 -1,440 Descending Miami Center
08:06AM 25.9897 -80.0281 269° West 266 306 4,200 -1,200 Descending Miami Center
08:07AM 25.9953 -80.0558 283° West 270 311 3,900 -1,140 Descending Miami Center
08:07AM 25.9942 -80.1067 269° West 262 302 3,100 -900 Descending Miami Center
08:08AM 26.0019 -80.1300 290° West 270 311 3,000 -120 Descending Miami Center
08:08AM 26.0028 -80.1925 271° West 266 306 3,000  Level Miami Center
08:09AM 26.0064 -80.2111 282° West 270 311 3,000 60 Level Miami Center
08:09AM 25.9989 -80.2617 261° West 206 237 3,100 -360 Climbing Miami Center
08:10AM 26.0228 -80.3108 298° West 213 245 2,400 -540 Descending Miami Center
08:11AM 26.0756 -80.2939 16° North 184 212 2,100 -540 Descending Miami Center
08:12AM 26.0744 -80.2547 92° East 172 198 1,500 -720 Descending Miami Center
08:13AM 26.0733 -80.2083 92° East 129 148 800 -660 Descending Miami Center
08:15AM 26.0667 -80.1500 77° East  Level FlightAware Approximate